Time;durP1;ratioP1;P1;durP2;ratioP2;P2;SDS_P1;SDS_P2;PMS_P1;PMS_P2;Temp;Humidity;BMP_temperature;BMP_pressure;BME280_temperature;BME280_humidity;BME280_pressure;Samples;Min_cycle;Max_cycle;Signal;HPM_P1;HPM_P2
2023/07/19 00:00:12;;;;;;;7.80;4.80;;;;;;;28.22;44.30;100372.91;107975;1284;22001;-67
2023/07/19 00:02:38;;;;;;;7.40;4.90;;;;;;;28.18;44.45;100366.53;107906;1284;21995;-61
2023/07/19 00:05:04;;;;;;;7.00;5.20;;;;;;;28.16;44.28;100366.48;107938;1287;22002;-67
2023/07/19 00:07:30;;;;;;;7.60;4.90;;;;;;;28.16;44.04;100367.83;108004;1284;21962;-64
2023/07/19 00:09:56;;;;;;;6.50;4.80;;;;;;;28.15;44.12;100362.85;107898;1287;22553;-69
2023/07/19 00:12:21;;;;;;;8.60;4.30;;;;;;;28.15;44.29;100357.03;107962;1289;21993;-64
2023/07/19 00:14:47;;;;;;;9.00;4.40;;;;;;;28.15;44.14;100355.41;107989;1284;21995;-62
2023/07/19 00:17:13;;;;;;;7.40;5.40;;;;;;;28.15;44.05;100354.36;107894;1278;21994;-61
2023/07/19 00:19:39;;;;;;;9.10;4.90;;;;;;;28.14;44.05;100351.92;107915;1277;22068;-61
2023/07/19 00:22:07;;;;;;;9.70;5.50;;;;;;;28.11;43.92;100344.61;107922;1278;22024;-68
2023/07/19 00:24:33;;;;;;;6.00;4.90;;;;;;;28.08;43.92;100341.04;107982;1278;21991;-61
2023/07/19 00:26:59;;;;;;;7.80;5.10;;;;;;;28.05;43.74;100338.73;107929;1289;22370;-68
2023/07/19 00:29:25;;;;;;;9.10;5.30;;;;;;;28.02;43.89;100337.80;107902;1289;22117;-68
2023/07/19 00:31:51;;;;;;;7.40;5.20;;;;;;;27.99;43.77;100341.34;107968;1278;21992;-68
2023/07/19 00:34:16;;;;;;;12.40;5.40;;;;;;;27.95;43.89;100342.84;107953;1284;21990;-64
2023/07/19 00:36:45;;;;;;;8.40;5.00;;;;;;;27.92;43.90;100344.02;107971;1287;21990;-61
2023/07/19 00:39:11;;;;;;;15.70;5.30;;;;;;;27.89;43.97;100347.17;107955;1289;21994;-68
2023/07/19 00:41:37;;;;;;;8.20;5.40;;;;;;;27.86;43.87;100351.22;108035;1284;22002;-61
2023/07/19 00:44:03;;;;;;;9.00;4.70;;;;;;;27.84;43.94;100351.16;108005;1289;22005;-61
2023/07/19 00:46:29;;;;;;;9.90;5.70;;;;;;;27.85;44.00;100345.34;107990;1278;21985;-68
2023/07/19 00:48:56;;;;;;;7.20;4.90;;;;;;;27.85;43.88;100341.06;107940;1287;21994;-61
2023/07/19 00:51:22;;;;;;;7.70;5.70;;;;;;;27.85;43.83;100340.86;107906;1289;21990;-61
2023/07/19 00:53:47;;;;;;;10.60;5.80;;;;;;;27.86;43.88;100343.27;107959;1284;22002;-61
2023/07/19 00:56:14;;;;;;;7.60;5.30;;;;;;;27.86;43.90;100342.16;107937;1284;21986;-62
2023/07/19 00:58:40;;;;;;;10.60;5.70;;;;;;;27.87;43.85;100335.79;107966;1278;22004;-67
2023/07/19 01:01:06;;;;;;;9.30;5.60;;;;;;;27.89;43.81;100332.00;107932;1289;21992;-67
2023/07/19 01:03:31;;;;;;;11.20;5.80;;;;;;;27.92;43.75;100332.70;107972;1289;21986;-63
2023/07/19 01:05:58;;;;;;;10.50;5.40;;;;;;;27.93;43.61;100336.54;107946;1289;21987;-68
2023/07/19 01:08:24;;;;;;;10.00;5.80;;;;;;;27.94;43.60;100341.56;107949;1284;22001;-61
2023/07/19 01:10:50;;;;;;;8.40;5.70;;;;;;;27.92;43.39;100339.34;108018;1284;21986;-67
2023/07/19 01:13:15;;;;;;;7.50;5.40;;;;;;;27.92;43.39;100336.70;107841;1289;22042;-61
2023/07/19 01:15:41;;;;;;;14.00;4.90;;;;;;;27.93;43.23;100328.85;107982;1287;22009;-68
2023/07/19 01:18:07;;;;;;;10.20;5.00;;;;;;;27.95;43.12;100327.08;107939;1284;21982;-67
2023/07/19 01:20:33;;;;;;;9.50;5.00;;;;;;;27.97;43.04;100326.17;107998;1284;22459;-68
2023/07/19 01:22:58;;;;;;;7.20;5.00;;;;;;;27.96;42.90;100320.79;107982;1278;22054;-67
2023/07/19 01:25:24;;;;;;;7.90;5.10;;;;;;;27.95;42.74;100318.39;107994;1289;22022;-68
2023/07/19 01:27:50;;;;;;;7.30;5.00;;;;;;;27.94;42.79;100312.48;107993;1289;21995;-63
2023/07/19 01:30:17;;;;;;;10.70;5.20;;;;;;;27.93;42.62;100305.05;108033;1281;22470;-67
2023/07/19 01:32:44;;;;;;;9.30;5.10;;;;;;;27.89;42.61;100294.00;107948;1277;21997;-67
2023/07/19 01:35:10;;;;;;;7.90;5.40;;;;;;;27.86;42.39;100291.20;107960;1287;21990;-67
2023/07/19 01:37:35;;;;;;;6.80;4.50;;;;;;;27.85;42.54;100293.27;108000;1284;21991;-62
2023/07/19 01:40:01;;;;;;;7.80;5.40;;;;;;;27.83;42.50;100295.39;107985;1284;21992;-67
2023/07/19 01:42:27;;;;;;;8.10;4.90;;;;;;;27.81;42.60;100306.92;107952;1289;21990;-68
2023/07/19 01:44:56;;;;;;;12.30;5.40;;;;;;;27.78;42.65;100307.77;108024;1284;21990;-67
2023/07/19 01:47:22;;;;;;;9.80;5.00;;;;;;;27.73;42.39;100305.13;108067;1287;23640;-67
2023/07/19 01:49:47;;;;;;;8.70;5.10;;;;;;;27.68;42.46;100304.80;108002;1289;21992;-68
2023/07/19 01:52:15;;;;;;;8.70;5.30;;;;;;;27.64;42.39;100305.35;107946;1287;21997;-68
2023/07/19 01:54:40;;;;;;;9.90;5.40;;;;;;;27.59;42.21;100301.94;108000;1284;21990;-64
2023/07/19 01:57:06;;;;;;;12.50;5.20;;;;;;;27.56;42.41;100299.55;108005;1284;21989;-67
2023/07/19 01:59:32;;;;;;;7.80;5.90;;;;;;;27.51;42.51;100304.50;108021;1284;21980;-68
2023/07/19 02:01:57;;;;;;;7.90;5.30;;;;;;;27.48;42.40;100308.67;108032;1289;22004;-69
2023/07/19 02:04:23;;;;;;;9.10;5.70;;;;;;;27.44;42.48;100308.42;107981;1284;21989;-68
2023/07/19 02:06:49;;;;;;;9.30;4.90;;;;;;;27.40;42.54;100308.90;107947;1289;22218;-66
2023/07/19 02:09:15;;;;;;;9.10;4.70;;;;;;;27.37;42.65;100308.65;107949;1287;21986;-68
2023/07/19 02:11:41;;;;;;;9.80;5.20;;;;;;;27.34;42.51;100308.74;107924;1284;21990;-67
2023/07/19 02:14:07;;;;;;;11.80;5.40;;;;;;;27.30;42.57;100305.05;107992;1281;21978;-68
2023/07/19 02:16:33;;;;;;;8.50;5.50;;;;;;;27.28;42.61;100301.30;108038;1284;22026;-67
2023/07/19 02:18:59;;;;;;;11.80;5.60;;;;;;;27.27;42.61;100298.45;107915;1286;22000;-67
2023/07/19 02:21:25;;;;;;;11.60;5.60;;;;;;;27.26;42.48;100295.51;107978;1278;22015;-61
2023/07/19 02:23:50;;;;;;;10.10;5.40;;;;;;;27.23;42.62;100302.60;107931;1289;21999;-68
2023/07/19 02:26:16;;;;;;;11.00;5.20;;;;;;;27.21;42.54;100309.79;107951;1284;21978;-67
2023/07/19 02:28:42;;;;;;;10.40;5.40;;;;;;;27.18;42.63;100314.70;107953;1278;21989;-67
2023/07/19 02:31:07;;;;;;;9.70;5.50;;;;;;;27.13;42.76;100321.08;107972;1278;21994;-61
2023/07/19 02:33:33;;;;;;;11.70;5.50;;;;;;;27.08;42.72;100319.33;107967;1287;21989;-68
2023/07/19 02:35:59;;;;;;;18.50;6.80;;;;;;;27.04;42.85;100322.22;108020;1289;21994;-60
2023/07/19 02:38:25;;;;;;;12.40;6.10;;;;;;;26.99;42.84;100321.67;107823;1284;21994;-61
2023/07/19 02:40:57;;;;;;;11.90;5.80;;;;;;;26.96;42.98;100321.06;107968;1284;22001;-67
2023/07/19 02:43:23;;;;;;;10.70;5.60;;;;;;;26.94;43.02;100324.46;108039;1289;21990;-67
2023/07/19 02:45:48;;;;;;;10.10;6.10;;;;;;;26.92;43.15;100328.75;107932;1280;21990;-68
2023/07/19 02:48:14;;;;;;;9.20;5.50;;;;;;;26.90;43.24;100333.82;107902;1286;21994;-67
2023/07/19 02:50:49;;;;;;;12.40;5.20;;;;;;;26.88;43.37;100339.02;108003;1289;21992;-61
2023/07/19 02:53:15;;;;;;;10.80;5.00;;;;;;;26.85;43.50;100336.84;107957;1287;22572;-60
2023/07/19 02:55:44;;;;;;;7.30;5.80;;;;;;;26.85;43.46;100336.17;107994;1284;23431;-67
2023/07/19 02:58:10;;;;;;;8.80;5.10;;;;;;;26.83;43.36;100332.71;108008;1278;21996;-68
2023/07/19 03:00:40;;;;;;;8.70;5.50;;;;;;;26.82;43.20;100332.43;107947;1284;21987;-61
2023/07/19 03:03:07;;;;;;;9.80;5.60;;;;;;;26.82;43.32;100326.31;108023;1289;22014;-67
2023/07/19 03:05:34;;;;;;;13.50;5.50;;;;;;;26.82;43.44;100324.89;109068;1284;21990;-68
2023/07/19 03:08:01;;;;;;;13.00;5.40;;;;;;;26.82;43.57;100325.96;107989;1289;22012;-67
2023/07/19 03:10:28;;;;;;;10.30;5.80;;;;;;;26.82;43.51;100327.95;108139;1289;23052;-61
2023/07/19 03:12:54;;;;;;;15.40;6.10;;;;;;;26.82;43.68;100318.92;107976;1287;21995;-68
2023/07/19 03:15:20;;;;;;;10.80;5.00;;;;;;;26.84;43.89;100320.05;108044;1289;21985;-65
2023/07/19 03:17:45;;;;;;;11.60;5.90;;;;;;;26.85;43.87;100325.18;107982;1281;21988;-60
2023/07/19 03:20:11;;;;;;;11.10;5.70;;;;;;;26.85;43.96;100332.35;108010;1283;21991;-61
2023/07/19 03:22:38;;;;;;;13.60;5.70;;;;;;;26.86;44.12;100337.35;108071;1284;21994;-61
2023/07/19 03:25:05;;;;;;;13.40;5.80;;;;;;;26.88;44.14;100337.72;107985;1285;21992;-66
2023/07/19 03:27:31;;;;;;;13.00;5.30;;;;;;;26.92;44.39;100338.81;108417;1284;21997;-67
2023/07/19 03:29:56;;;;;;;8.10;5.80;;;;;;;27.00;44.25;100338.56;107969;1287;23660;-61
2023/07/19 03:32:22;;;;;;;14.20;5.40;;;;;;;27.08;44.20;100340.61;107996;1289;22021;-62
2023/07/19 03:34:48;;;;;;;10.90;5.40;;;;;;;27.16;44.41;100340.46;108016;1287;22102;-62
2023/07/19 03:37:15;;;;;;;6.60;5.30;;;;;;;27.25;44.34;100337.63;108126;1289;21957;-68
2023/07/19 03:39:41;;;;;;;8.70;5.30;;;;;;;27.33;44.30;100339.80;108140;1289;22933;-68
2023/07/19 03:42:08;;;;;;;8.70;5.20;;;;;;;27.41;44.25;100339.85;108067;1289;21992;-68
2023/07/19 03:44:35;;;;;;;8.80;5.70;;;;;;;27.49;44.35;100339.42;108034;1289;21992;-67
2023/07/19 03:47:01;;;;;;;19.90;5.80;;;;;;;27.54;44.18;100338.21;107972;1289;21989;-61
2023/07/19 03:49:26;;;;;;;17.30;6.50;;;;;;;27.60;44.17;100338.77;107942;1289;23455;-61
2023/07/19 03:51:52;;;;;;;13.40;5.50;;;;;;;27.68;44.34;100336.73;107893;1285;21996;-61
2023/07/19 03:54:17;;;;;;;10.10;5.20;;;;;;;27.73;44.47;100338.09;107930;1284;21995;-68
2023/07/19 03:56:43;;;;;;;13.00;5.60;;;;;;;27.78;44.22;100336.39;107839;1284;21985;-67
2023/07/19 03:59:09;;;;;;;17.70;4.90;;;;;;;27.84;44.27;100336.63;107960;1289;23606;-61
2023/07/19 04:01:36;;;;;;;11.00;4.90;;;;;;;27.91;44.26;100331.00;107941;1281;21992;-68
2023/07/19 04:04:01;;;;;;;11.30;5.00;;;;;;;27.97;43.97;100332.95;107944;1280;21992;-61
2023/07/19 04:06:27;;;;;;;10.60;5.40;;;;;;;28.03;43.82;100331.05;107966;1283;22000;-61
2023/07/19 04:09:02;;;;;;;7.20;5.40;;;;;;;28.01;43.98;100329.77;107983;1288;21990;-60
2023/07/19 04:11:28;;;;;;;12.40;5.50;;;;;;;27.94;44.00;100329.99;108137;1287;22026;-61
2023/07/19 04:13:54;;;;;;;8.80;5.80;;;;;;;27.94;44.08;100325.45;107855;1284;21990;-61
2023/07/19 04:16:20;;;;;;;10.00;5.10;;;;;;;27.99;44.18;100323.05;107923;1289;21985;-68
2023/07/19 04:18:46;;;;;;;12.30;5.60;;;;;;;28.13;44.17;100325.52;107968;1289;21992;-67
2023/07/19 04:21:12;;;;;;;20.10;5.70;;;;;;;28.31;44.10;100332.01;107942;1289;21992;-59
2023/07/19 04:23:37;;;;;;;12.80;6.40;;;;;;;28.47;43.93;100334.64;107948;1287;21994;-67
2023/07/19 04:26:05;;;;;;;13.70;5.40;;;;;;;28.57;43.70;100340.09;107984;1284;21992;-68
2023/07/19 04:28:31;;;;;;;15.00;5.50;;;;;;;28.59;43.53;100341.89;107944;1284;22030;-61
2023/07/19 04:30:57;;;;;;;14.00;5.30;;;;;;;28.63;43.45;100339.54;107986;1284;21995;-69
2023/07/19 04:33:24;;;;;;;14.70;5.70;;;;;;;28.67;43.30;100339.92;107968;1278;21994;-67
2023/07/19 04:35:50;;;;;;;17.20;6.40;;;;;;;28.66;43.37;100343.41;107968;1289;22002;-68
2023/07/19 04:38:16;;;;;;;15.30;5.50;;;;;;;28.66;43.18;100344.48;108016;1284;22001;-60
2023/07/19 04:40:42;;;;;;;10.70;6.00;;;;;;;28.68;43.23;100343.77;107963;1287;22001;-61
2023/07/19 04:43:07;;;;;;;13.90;5.60;;;;;;;28.80;42.87;100346.34;107951;1289;21987;-60
2023/07/19 04:45:33;;;;;;;10.40;6.10;;;;;;;28.75;42.99;100345.34;107915;1284;23760;-69
2023/07/19 04:47:59;;;;;;;10.50;5.40;;;;;;;28.68;42.73;100348.14;107915;1284;22028;-67
2023/07/19 04:50:24;;;;;;;10.00;5.70;;;;;;;28.63;42.77;100350.50;107969;1285;24329;-66
2023/07/19 04:52:53;;;;;;;12.40;5.50;;;;;;;28.59;42.59;100348.31;107973;1287;21954;-64
2023/07/19 04:55:20;;;;;;;8.90;4.70;;;;;;;28.57;42.82;100347.84;108000;1284;22002;-60
2023/07/19 04:57:46;;;;;;;10.80;5.40;;;;;;;28.55;42.75;100347.09;108092;1284;21994;-61
2023/07/19 05:00:12;;;;;;;9.70;5.40;;;;;;;28.53;42.69;100350.70;107970;1289;22098;-67
2023/07/19 05:02:39;;;;;;;8.40;4.90;;;;;;;28.50;42.67;100351.30;108053;1287;21987;-67
2023/07/19 05:05:05;;;;;;;8.60;5.50;;;;;;;28.50;42.78;100352.01;107982;1289;21995;-68
2023/07/19 05:07:36;;;;;;;9.00;5.10;;;;;;;28.52;42.71;100349.73;107966;1289;21990;-58
2023/07/19 05:10:03;;;;;;;20.70;8.90;;;;;;;28.64;42.91;100349.41;108168;1287;21988;-68
2023/07/19 05:12:32;;;;;;;17.40;7.40;;;;;;;28.73;42.68;100348.71;107994;1289;22083;-66
2023/07/19 05:14:58;;;;;;;16.90;7.90;;;;;;;28.79;42.69;100342.25;107937;1289;22044;-60
2023/07/19 05:17:24;;;;;;;14.20;7.60;;;;;;;28.82;42.64;100342.92;107988;1289;22029;-60
2023/07/19 05:19:50;;;;;;;17.10;7.40;;;;;;;28.90;42.57;100341.85;108013;1284;21984;-67
2023/07/19 05:22:16;;;;;;;13.30;7.20;;;;;;;28.98;42.30;100346.70;108014;1284;21996;-60
2023/07/19 05:24:42;;;;;;;14.60;6.40;;;;;;;29.00;42.14;100349.10;107979;1284;21997;-67
2023/07/19 05:27:08;;;;;;;9.90;6.20;;;;;;;28.99;42.08;100354.16;108004;1287;22098;-66
2023/07/19 05:29:33;;;;;;;8.80;5.50;;;;;;;28.98;42.05;100358.59;107950;1283;21994;-60
2023/07/19 05:31:59;;;;;;;7.50;4.90;;;;;;;28.96;42.06;100357.05;108030;1288;21985;-67
2023/07/19 05:34:25;;;;;;;6.60;5.10;;;;;;;28.94;42.08;100361.35;108019;1289;21990;-61
2023/07/19 05:36:51;;;;;;;9.30;4.70;;;;;;;28.92;41.95;100366.98;107992;1289;22002;-61
2023/07/19 05:39:17;;;;;;;7.20;5.30;;;;;;;28.88;41.98;100369.67;108040;1284;21995;-67
2023/07/19 05:41:42;;;;;;;7.40;4.80;;;;;;;28.86;42.01;100372.56;108019;1289;21981;-68
2023/07/19 05:44:08;;;;;;;8.40;4.70;;;;;;;28.81;42.23;100367.58;108077;1285;21992;-68
2023/07/19 05:46:35;;;;;;;9.50;4.90;;;;;;;28.72;42.55;100366.15;108019;1289;21999;-61
2023/07/19 05:49:00;;;;;;;9.70;5.00;;;;;;;28.84;42.38;100361.47;107981;1284;22102;-68
2023/07/19 05:51:26;;;;;;;7.90;4.80;;;;;;;28.95;42.24;100361.23;107984;1283;21997;-61
2023/07/19 05:53:52;;;;;;;12.20;5.60;;;;;;;28.97;42.16;100358.50;108022;1289;21992;-61
2023/07/19 05:56:17;;;;;;;9.40;5.00;;;;;;;29.04;42.21;100357.70;107998;1286;22001;-61
2023/07/19 05:58:43;;;;;;;13.30;5.20;;;;;;;29.03;42.50;100361.44;107986;1285;21999;-61
2023/07/19 06:01:09;;;;;;;11.20;5.90;;;;;;;29.06;42.60;100362.60;108040;1285;21988;-68
2023/07/19 06:03:36;;;;;;;7.80;4.90;;;;;;;29.15;42.46;100364.27;108040;1284;21998;-68
2023/07/19 06:06:05;;;;;;;9.40;4.80;;;;;;;29.26;42.29;100367.13;108084;1289;22003;-61
2023/07/19 06:08:32;;;;;;;9.90;4.50;;;;;;;29.37;42.37;100364.36;108085;1283;21996;-67
2023/07/19 06:10:58;;;;;;;7.60;5.50;;;;;;;29.45;42.18;100359.79;108052;1278;21988;-67
2023/07/19 06:13:24;;;;;;;8.20;5.00;;;;;;;29.54;42.06;100351.77;108025;1284;21988;-67
2023/07/19 06:15:50;;;;;;;6.90;5.00;;;;;;;29.61;41.73;100353.13;107990;1289;21991;-61
2023/07/19 06:18:15;;;;;;;10.90;5.20;;;;;;;29.68;41.65;100356.80;108006;1289;21989;-67
2023/07/19 06:20:41;;;;;;;7.80;4.80;;;;;;;29.76;41.65;100357.70;108002;1289;22030;-61
2023/07/19 06:23:06;;;;;;;7.00;5.20;;;;;;;29.86;41.61;100353.70;108005;1287;21996;-62
2023/07/19 06:25:33;;;;;;;7.90;4.60;;;;;;;29.98;41.66;100349.10;108024;1285;21993;-61
2023/07/19 06:27:59;;;;;;;7.20;4.50;;;;;;;30.12;41.48;100347.48;108075;1284;21994;-61
2023/07/19 06:30:24;;;;;;;8.20;4.70;;;;;;;30.26;41.47;100346.88;107965;1289;22146;-67
2023/07/19 06:32:50;;;;;;;7.70;4.50;;;;;;;30.38;41.19;100343.70;108015;1289;21992;-67
2023/07/19 06:35:16;;;;;;;6.40;4.30;;;;;;;30.49;41.08;100346.80;108018;1281;21990;-61
2023/07/19 06:37:43;;;;;;;7.20;4.10;;;;;;;30.63;40.96;100345.06;108025;1289;22004;-67
2023/07/19 06:40:09;;;;;;;7.30;4.50;;;;;;;30.78;40.81;100339.23;108050;1284;22026;-67
2023/07/19 06:42:36;;;;;;;8.80;4.20;;;;;;;30.93;40.71;100339.44;108069;1289;21993;-66
2023/07/19 06:45:01;;;;;;;7.80;4.30;;;;;;;31.12;40.70;100338.33;108101;1289;23039;-61
2023/07/19 06:47:29;;;;;;;6.80;4.00;;;;;;;31.30;40.42;100340.36;107888;1289;23079;-61
2023/07/19 06:49:56;;;;;;;5.20;3.80;;;;;;;31.50;40.40;100340.47;108080;1284;22010;-66
2023/07/19 06:52:22;;;;;;;5.90;4.30;;;;;;;31.68;40.23;100344.29;107983;1283;21997;-62
2023/07/19 06:54:47;;;;;;;7.30;4.40;;;;;;;31.83;39.88;100347.83;108054;1284;21995;-67
2023/07/19 06:57:13;;;;;;;8.90;4.20;;;;;;;31.97;39.65;100346.26;108001;1287;21988;-62
2023/07/19 06:59:38;;;;;;;7.40;3.60;;;;;;;32.11;39.65;100344.23;108010;1289;21997;-61
2023/07/19 07:02:05;;;;;;;5.30;3.40;;;;;;;32.27;39.50;100343.66;107862;1284;167830;-61
2023/07/19 07:04:30;;;;;;;5.00;3.70;;;;;;;32.46;39.12;100339.75;108068;1284;22027;-61
2023/07/19 07:06:56;;;;;;;5.70;3.60;;;;;;;32.65;38.92;100337.23;108041;1283;21990;-66
2023/07/19 07:09:22;;;;;;;7.10;4.00;;;;;;;32.83;38.74;100330.55;108014;1287;21997;-68
2023/07/19 07:11:47;;;;;;;8.00;3.80;;;;;;;33.06;38.40;100327.53;108006;1289;21991;-68
2023/07/19 07:14:13;;;;;;;6.10;4.00;;;;;;;33.34;38.58;100330.54;108024;1287;22099;-62
2023/07/19 07:16:39;;;;;;;6.10;3.90;;;;;;;33.63;37.52;100327.73;108005;1289;21983;-63
2023/07/19 07:19:05;;;;;;;7.70;3.90;;;;;;;33.81;36.97;100322.48;108011;1289;21992;-67
2023/07/19 07:21:31;;;;;;;6.80;3.60;;;;;;;33.97;37.14;100318.57;107979;1284;22129;-62
2023/07/19 07:23:57;;;;;;;7.90;3.60;;;;;;;34.18;36.69;100318.68;107999;1288;21995;-68
2023/07/19 07:26:23;;;;;;;5.70;3.40;;;;;;;34.39;35.91;100320.02;108006;1289;21995;-67
2023/07/19 07:28:48;;;;;;;6.90;3.90;;;;;;;34.63;35.70;100317.48;108010;1287;21992;-61
2023/07/19 07:31:14;;;;;;;8.40;4.10;;;;;;;34.90;35.65;100311.92;108022;1284;21989;-67
2023/07/19 07:33:40;;;;;;;7.50;4.10;;;;;;;35.12;34.71;100314.73;108002;1289;21985;-62
2023/07/19 07:36:06;;;;;;;8.00;3.40;;;;;;;35.33;34.89;100317.66;108021;1281;21998;-62
2023/07/19 07:38:32;;;;;;;6.00;3.30;;;;;;;35.51;35.03;100320.31;108010;1288;21990;-62
2023/07/19 07:41:00;;;;;;;6.10;3.70;;;;;;;35.74;34.89;100314.91;108011;1284;22022;-61
2023/07/19 07:43:26;;;;;;;5.50;3.70;;;;;;;35.89;33.81;100313.98;107997;1289;21996;-62
2023/07/19 07:45:54;;;;;;;5.90;3.90;;;;;;;36.02;33.49;100318.40;108041;1284;23731;-61
2023/07/19 07:48:23;;;;;;;5.00;3.50;;;;;;;36.07;32.71;100320.88;108056;1284;21969;-62
2023/07/19 07:50:53;;;;;;;6.50;3.90;;;;;;;36.11;32.72;100313.86;108000;1289;21999;-63
2023/07/19 07:53:19;;;;;;;7.10;3.60;;;;;;;36.30;33.42;100312.60;108039;1289;22458;-63
2023/07/19 07:55:45;;;;;;;6.20;3.40;;;;;;;36.51;32.83;100310.36;107996;1289;21992;-68
2023/07/19 07:58:11;;;;;;;5.30;3.40;;;;;;;36.62;32.58;100310.77;108019;1289;21954;-67
2023/07/19 08:00:37;;;;;;;5.70;3.10;;;;;;;36.65;32.39;100309.87;108062;1289;22456;-62
2023/07/19 08:03:03;;;;;;;7.10;3.40;;;;;;;36.77;32.94;100310.38;107994;1289;22010;-67
2023/07/19 08:05:29;;;;;;;6.80;4.00;;;;;;;36.93;32.06;100303.95;107825;1284;22000;-68
2023/07/19 08:07:55;;;;;;;7.70;3.70;;;;;;;36.88;31.27;100301.73;107872;1289;22007;-63
2023/07/19 08:10:20;;;;;;;12.10;4.30;;;;;;;36.73;31.74;100300.92;108012;1285;22028;-62
2023/07/19 08:12:47;;;;;;;9.30;3.20;;;;;;;36.57;30.72;100298.63;107991;1289;21992;-67
2023/07/19 08:15:12;;;;;;;9.50;3.30;;;;;;;36.49;30.65;100296.44;108065;1284;21991;-68
2023/07/19 08:17:39;;;;;;;8.70;3.30;;;;;;;36.53;30.97;100297.11;108049;1289;21996;-67
2023/07/19 08:20:06;;;;;;;6.00;3.10;;;;;;;36.70;31.31;100294.82;108028;1288;21992;-67
2023/07/19 08:22:33;;;;;;;8.40;3.30;;;;;;;36.86;30.78;100290.11;108137;1288;21992;-68
2023/07/19 08:24:59;;;;;;;7.10;3.20;;;;;;;36.90;29.77;100287.58;108121;1289;21995;-66
2023/07/19 08:27:26;;;;;;;4.50;2.60;;;;;;;37.00;30.08;100289.43;108061;1289;21994;-68
2023/07/19 08:29:55;;;;;;;5.20;3.20;;;;;;;37.13;30.63;100286.66;107988;1284;22011;-62
2023/07/19 08:32:21;;;;;;;14.40;3.60;;;;;;;37.45;30.65;100287.02;107986;1288;22206;-62
2023/07/19 08:34:46;;;;;;;10.10;3.40;;;;;;;37.91;30.55;100284.05;107899;1289;22545;-68
2023/07/19 08:37:12;;;;;;;6.70;2.80;;;;;;;38.45;30.29;100279.73;107964;1284;21992;-63
2023/07/19 08:39:37;;;;;;;5.50;3.20;;;;;;;38.83;29.57;100277.63;107981;1289;23615;-68
2023/07/19 08:42:04;;;;;;;7.30;2.70;;;;;;;39.22;29.98;100271.82;107941;1288;21994;-62
2023/07/19 08:44:29;;;;;;;11.00;3.00;;;;;;;39.82;29.98;100271.54;107996;1287;21992;-67
2023/07/19 08:46:55;;;;;;;19.10;4.00;;;;;;;40.30;28.43;100266.77;107969;1289;21980;-67
2023/07/19 08:49:21;;;;;;;5.80;2.80;;;;;;;40.38;28.07;100265.56;108014;1289;21997;-66
2023/07/19 08:51:47;;;;;;;7.10;3.10;;;;;;;40.54;29.10;100265.69;108025;1285;21998;-68
2023/07/19 08:54:13;;;;;;;9.50;3.90;;;;;;;40.96;28.22;100260.65;107978;1288;22028;-63
2023/07/19 08:56:43;;;;;;;4.70;2.70;;;;;;;41.38;27.84;100255.61;107928;1285;22059;-68
2023/07/19 08:59:08;;;;;;;7.80;3.30;;;;;;;41.95;27.89;100252.52;107940;1289;22160;-68
2023/07/19 09:01:34;;;;;;;9.20;3.30;;;;;;;42.27;25.22;100249.93;107994;1277;21996;-63
2023/07/19 09:04:07;;;;;;;10.10;3.30;;;;;;;42.04;26.10;100250.48;108010;1289;22002;-68
2023/07/19 09:06:33;;;;;;;6.10;3.30;;;;;;;41.87;26.49;100248.10;107999;1277;23830;-63
2023/07/19 09:09:00;;;;;;;6.10;3.20;;;;;;;41.93;26.40;100244.17;108001;1289;23873;-67
2023/07/19 09:11:28;;;;;;;8.50;3.60;;;;;;;42.15;26.03;100246.57;107864;1284;23723;-67
2023/07/19 09:13:55;;;;;;;5.90;3.40;;;;;;;42.35;26.30;100244.70;107951;1289;22017;-68
2023/07/19 09:16:31;;;;;;;5.60;3.30;;;;;;;42.55;25.84;100237.09;107995;1289;22007;-68
2023/07/19 09:18:58;;;;;;;7.20;3.50;;;;;;;42.72;26.24;100237.47;108067;1289;21991;-67
2023/07/19 09:21:37;;;;;;;4.70;3.20;;;;;;;42.81;25.80;100236.27;108034;1278;22159;-63
2023/07/19 09:24:06;;;;;;;7.00;3.40;;;;;;;42.72;25.76;100230.39;107963;1277;22004;-63
2023/07/19 09:26:56;;;;;;;4.40;3.30;;;;;;;42.73;25.16;100220.51;108042;1287;22199;-63
2023/07/19 09:29:22;;;;;;;9.00;3.30;;;;;;;42.54;25.21;100217.70;108003;1289;21996;-63
2023/07/19 09:31:54;;;;;;;7.40;3.40;;;;;;;42.72;24.98;100219.60;107970;1289;21996;-63
2023/07/19 09:34:26;;;;;;;5.70;3.70;;;;;;;42.81;24.78;100218.02;108016;1287;21998;-66
2023/07/19 09:36:52;;;;;;;7.60;3.10;;;;;;;42.73;24.49;100217.91;107974;1287;21997;-67
2023/07/19 09:39:19;;;;;;;8.50;4.00;;;;;;;42.37;24.46;100217.61;108041;1289;21994;-68
2023/07/19 09:41:47;;;;;;;6.90;3.40;;;;;;;42.26;25.19;100213.98;108086;1283;22017;-68
2023/07/19 09:44:15;;;;;;;7.40;3.00;;;;;;;42.50;25.29;100208.29;108021;1289;22158;-63
2023/07/19 09:46:42;;;;;;;6.90;3.30;;;;;;;42.85;25.24;100206.39;108037;1289;22027;-63
2023/07/19 09:49:08;;;;;;;6.40;3.40;;;;;;;42.97;25.07;100203.27;108068;1278;21995;-63
2023/07/19 09:51:34;;;;;;;6.00;3.10;;;;;;;42.94;25.15;100198.88;107928;1287;22001;-67
2023/07/19 09:54:07;;;;;;;6.00;3.20;;;;;;;42.85;25.02;100195.10;108035;1289;22003;-61
2023/07/19 09:56:33;;;;;;;11.50;3.20;;;;;;;42.63;24.17;100191.64;109214;1287;21992;-62
2023/07/19 09:58:58;;;;;;;6.40;3.30;;;;;;;42.25;24.21;100186.35;108003;1289;22000;-62
2023/07/19 10:01:24;;;;;;;5.50;3.30;;;;;;;41.86;24.44;100187.76;107863;1287;22092;-68
2023/07/19 10:03:50;;;;;;;6.20;3.50;;;;;;;41.54;24.74;100188.52;108003;1289;22005;-61
2023/07/19 10:06:15;;;;;;;65.20;8.60;;;;;;;41.41;25.00;100189.55;108057;1281;21995;-62
2023/07/19 10:08:41;;;;;;;100.80;13.20;;;;;;;41.41;24.92;100187.67;107823;1289;21992;-62
2023/07/19 10:11:20;;;;;;;233.00;22.90;;;;;;;41.35;25.09;100187.48;108018;1284;21996;-66
2023/07/19 10:13:51;;;;;;;81.40;9.80;;;;;;;41.26;24.80;100184.38;108016;1289;22018;-63
2023/07/19 10:16:21;;;;;;;;;;;;;;;41.08;24.69;100184.63;108029;1289;21988;-67
2023/07/19 10:18:47;;;;;;;;;;;;;;;40.82;24.83;100186.69;107979;1284;21989;-61
2023/07/19 10:21:13;;;;;;;10.00;3.60;;;;;;;40.52;24.80;100184.39;107943;1278;21990;-62
2023/07/19 10:23:39;;;;;;;9.00;3.80;;;;;;;40.31;25.04;100183.70;107956;1289;21995;-67
2023/07/19 10:26:06;;;;;;;11.80;3.90;;;;;;;40.17;24.87;100182.85;107981;1283;22000;-61
2023/07/19 10:28:31;;;;;;;12.10;3.50;;;;;;;40.01;24.76;100183.04;107997;1289;21995;-67
2023/07/19 10:30:59;;;;;;;7.50;3.40;;;;;;;39.82;24.70;100176.94;107958;1285;22003;-61
2023/07/19 10:33:30;;;;;;;7.00;3.50;;;;;;;39.62;24.67;100177.40;108110;1288;22000;-67
2023/07/19 10:35:58;;;;;;;6.70;3.80;;;;;;;39.47;24.94;100175.23;107982;1289;22001;-67
2023/07/19 10:38:25;;;;;;;7.10;3.70;;;;;;;39.53;24.96;100172.01;108016;1283;22005;-67
2023/07/19 10:41:01;;;;;;;5.20;3.80;;;;;;;39.47;24.92;100169.68;108003;1285;22159;-67
2023/07/19 10:43:29;;;;;;;6.50;3.30;;;;;;;39.43;25.11;100167.52;107983;1289;22033;-62
2023/07/19 10:45:55;;;;;;;12.50;3.80;;;;;;;39.46;24.77;100167.49;107983;1289;21988;-61
2023/07/19 10:48:25;;;;;;;6.00;3.40;;;;;;;39.41;24.73;100159.70;108097;1284;21995;-62
2023/07/19 10:50:51;;;;;;;5.30;3.70;;;;;;;39.23;24.49;100155.39;108012;1288;21996;-62
2023/07/19 10:53:16;;;;;;;6.50;3.10;;;;;;;38.94;24.65;100154.98;108037;1286;21995;-63
2023/07/19 10:55:42;;;;;;;7.10;3.50;;;;;;;38.66;24.80;100154.91;108065;1284;22861;-67
2023/07/19 10:58:09;;;;;;;6.40;3.60;;;;;;;38.40;24.92;100152.82;108092;1288;21991;-67
2023/07/19 11:00:37;;;;;;;7.10;3.10;;;;;;;38.21;24.98;100150.02;108104;1289;21985;-61
2023/07/19 11:03:05;;;;;;;8.20;3.70;;;;;;;38.07;25.06;100149.98;108161;1275;23772;-63
2023/07/19 11:05:30;;;;;;;22.20;7.80;;;;;;;37.94;25.24;100145.26;108135;1287;21989;-66
2023/07/19 11:07:56;;;;;;;14.80;5.30;;;;;;;37.92;25.29;100140.33;108065;1289;21980;-67
2023/07/19 11:10:22;;;;;;;18.70;8.60;;;;;;;37.95;25.27;100137.02;108060;1287;22005;-67